Buxhansa — A8TQ5 — position and weather

sailwx.info

Track history (hours):
 
Tides and Currents Weather Stations Pressure Air Temp Water Temp Dewpoint Dewpoint Depression Visibility Wind Speed Wind Dir Waves Ship Positions

Buxhansa

Last reported at 2014-Sep-17 13:15 UTC. Time now 2014-Oct-01 12:29 UTC.
Position N 01°14' E 103°27'.
Warning: this ship's position is 13 days out of date.

Length 208 m; draft 11.2 m.

Type: Ship (hazmat cat A). MMSI: 636091849.

Date/timePositionNaut miles runAvg speedWind from/ knotsBaromVisibWave heightAir tempDewpointWater temp
2014-Sep-17 13:15N 01°14' E 103°27'6 8.4
2014-Sep-17 12:31N 01°17' E 103°33'4 3.0
2014-Sep-17 11:21N 01°20' E 103°33'0 0.0
2014-Sep-17 10:29N 01°20' E 103°33'0 0.0
2014-Sep-17 09:32N 01°20' E 103°33'0 0.0
2014-Sep-17 08:25N 01°20' E 103°33'0 0.0
2014-Sep-17 06:27N 01°20' E 103°33'0 0.0
2014-Sep-17 05:30N 01°20' E 103°33'0 0.0
2014-Sep-17 04:29N 01°20' E 103°33'0 0.0
2014-Sep-16 23:16N 01°20' E 103°33'0 0.0
2014-Sep-16 22:21N 01°20' E 103°33'0 0.0
2014-Sep-16 21:08N 01°20' E 103°33'0 0.0
2014-Sep-16 20:26N 01°20' E 103°33'0 0.0
2014-Sep-16 18:13N 01°20' E 103°33'0 0.1
2014-Sep-16 17:22N 01°20' E 103°33'0 0.1
2014-Sep-16 16:27N 01°20' E 103°33'0 0.0
2014-Sep-16 15:30N 01°20' E 103°33'0 0.0
2014-Sep-16 14:16N 01°20' E 103°33'0 0.0
2014-Sep-16 13:23N 01°20' E 103°33'0 0.0
2014-Sep-16 12:27N 01°20' E 103°33'0 0.0
2014-Sep-16 11:13N 01°20' E 103°33'0 0.0
2014-Sep-16 07:33N 01°20' E 103°33'6 5.2
2014-Sep-16 06:29N 01°15' E 103°32'4 3.9
2014-Sep-16 05:33N 01°12' E 103°35'8 7.8
2014-Sep-16 04:30N 01°10' E 103°43'7 7.7
2014-Sep-16 03:33N 01°11' E 103°50'8 8.1
2014-Sep-16 02:32N 01°15' E 103°57'56612.7
2014-Sep-14 06:00N 10°06' E 100°42'   270 / 81011.010.8 1.529.024.831.0
2014-Sep-09 10:00N 03°00' E 104°24'107 6.9 160 / 101014.0 5.4 0.532.029.332.0
2014-Sep-08 18:33N 01°15' E 104°04'  
Track history (hours):
 
Tides and Currents Weather Stations Pressure Air Temp Water Temp Dewpoint Dewpoint Depression Visibility Wind Speed Wind Dir Waves Ship Positions

Buxhansa

Last reported at 2014-Sep-17 13:15 UTC. Time now 2014-Oct-01 12:29 UTC.
Position N 01°14' E 103°27'.
Warning: this ship's position is 13 days out of date.

Length 208 m; draft 11.2 m.

Type: Ship (hazmat cat A). MMSI: 636091849.

Date/timePositionNaut miles runAvg speedWind from/ knotsBaromVisibWave heightAir tempDewpointWater temp
2014-Sep-17 13:15N 01°14' E 103°27'6 8.4
2014-Sep-17 12:31N 01°17' E 103°33'4 3.0
2014-Sep-17 11:21N 01°20' E 103°33'0 0.0
2014-Sep-17 10:29N 01°20' E 103°33'0 0.0
2014-Sep-17 09:32N 01°20' E 103°33'0 0.0
2014-Sep-17 08:25N 01°20' E 103°33'0 0.0
2014-Sep-17 06:27N 01°20' E 103°33'0 0.0
2014-Sep-17 05:30N 01°20' E 103°33'0 0.0
2014-Sep-17 04:29N 01°20' E 103°33'0 0.0
2014-Sep-16 23:16N 01°20' E 103°33'0 0.0
2014-Sep-16 22:21N 01°20' E 103°33'0 0.0
2014-Sep-16 21:08N 01°20' E 103°33'0 0.0
2014-Sep-16 20:26N 01°20' E 103°33'0 0.0
2014-Sep-16 18:13N 01°20' E 103°33'0 0.1
2014-Sep-16 17:22N 01°20' E 103°33'0 0.1
2014-Sep-16 16:27N 01°20' E 103°33'0 0.0
2014-Sep-16 15:30N 01°20' E 103°33'0 0.0
2014-Sep-16 14:16N 01°20' E 103°33'0 0.0
2014-Sep-16 13:23N 01°20' E 103°33'0 0.0
2014-Sep-16 12:27N 01°20' E 103°33'0 0.0
2014-Sep-16 11:13N 01°20' E 103°33'0 0.0
2014-Sep-16 07:33N 01°20' E 103°33'6 5.2
2014-Sep-16 06:29N 01°15' E 103°32'4 3.9
2014-Sep-16 05:33N 01°12' E 103°35'8 7.8
2014-Sep-16 04:30N 01°10' E 103°43'7 7.7
2014-Sep-16 03:33N 01°11' E 103°50'8 8.1
2014-Sep-16 02:32N 01°15' E 103°57'56612.7
2014-Sep-14 06:00N 10°06' E 100°42'   270 / 81011.010.8 1.529.024.831.0
2014-Sep-09 10:00N 03°00' E 104°24'107 6.9 160 / 101014.0 5.4 0.532.029.332.0
2014-Sep-08 18:33N 01°15' E 104°04'  

Dump ship's entire track history